TAF LDZA 051125Z 0512/0612 26005KT 9999 FEW045
                 TX16/0513Z TN00/0606Z
           BECMG 0513/0515 03015KT
    PROB40 TEMPO 0513/0518 03018G30KT SHRA SCT045TCU
    PROB30 TEMPO 0513/0518 TSRA SCT020 FEW045CB
           BECMG 0520/0522 03008KT
           TEMPO 0600/0612 VRB02KT=
TAF AMD LDZA 050719Z 0507/0606 22008KT 9999 FEW045
                     TX15/0512Z TN02/0604Z
               BECMG 0513/0515 03015KT
        PROB30 TEMPO 0513/0517 03018G30KT TSRAGS SCT020 FEW045CB
               BECMG 0520/0522 03005KT=
TAF LDZA 050525Z 0506/0606 22008KT 9999 FEW045
                 TX05/0512Z TN02/0604Z
           BECMG 0513/0515 03015KT
    PROB30 TEMPO 0513/0517 03018G30KT TSRAGS SCT020 FEW045CB
           BECMG 0520/0522 03005KT=
TAF LDZA 042325Z 0500/0600 23008KT 9999 FEW045
                 TX15/0512Z TN03/0523Z
          PROB40 0500/0508 VRB02KT
           BECMG 0513/0515 03015KT
    PROB30 TEMPO 0513/0520 TSRAGS SCT020 FEW045CB
    PROB40 TEMPO 0514/0518 03018G30KT
           BECMG 0520/0522 03005KT=
TAF LDZA 041725Z 0418/0518 23008KT 9999 FEW045
                 TX16/0512Z TN05/0505Z
          PROB40 0419/0508 VRB02KT
    PROB30 TEMPO 0512/0518 TSRA SCT020 FEW045CB
           BECMG 0513/0515 03015KT
    PROB40 TEMPO 0514/0518 03018G30KT=
TAF LDZA 041125Z 0412/0512 24007KT CAVOK
                 TX18/0414Z TN05/0505Z
          PROB40 0412/0419 24012KT=
TAF COR LDZA 041005Z 0410/0506 22004KT CAVOK
                     TX18/0414Z TN06/0505Z
               BECMG 0410/0412 23009KT
               BECMG 0419/0421 22005KT=
TAF AMD LDZA 040959Z 0409/0506 22004KT CAVOK
                     TX18/0414Z TN06/0505Z
               BECMG 0409/0411 23009KT
               BECMG 0419/0421 22005KT=
TAF LDZA 040525Z 0406/0506 22004KT CAVOK
                 TX18/0414Z TN02/0406Z
           BECMG 0408/0410 23012KT
           BECMG 0419/0421 22005KT=